createdAt,value
2022-10-20T00:02:52.904Z,99515.97
2022-10-20T00:08:16.107Z,99483.72
2022-10-20T00:13:51.674Z,99474.81
2022-10-20T00:19:18.285Z,99471.44
2022-10-20T00:24:49.255Z,99476.88
2022-10-20T00:30:14.451Z,99492.16
2022-10-20T00:35:44.610Z,99496.81
2022-10-20T00:41:10.967Z,99500.91
2022-10-20T00:46:46.646Z,99533.69
2022-10-20T00:52:10.547Z,99486.81
2022-10-20T00:57:49.648Z,99509.69
2022-10-20T01:03:19.213Z,99530.63
2022-10-20T01:08:44.350Z,99554.78
2022-10-20T01:14:26.432Z,99605.50
2022-10-20T01:20:10.335Z,99612.25
2022-10-20T01:25:54.966Z,99551.13
2022-10-20T01:31:30.724Z,99499.47
2022-10-20T01:36:59.227Z,99624.22
2022-10-20T01:42:30.367Z,99574.59
2022-10-20T01:47:58.155Z,99502.25
2022-10-20T01:53:21.507Z,99504.16
2022-10-20T01:59:02.794Z,99631.94
2022-10-20T02:04:50.933Z,99527.72
2022-10-20T02:10:18.786Z,99658.69
2022-10-20T02:15:47.186Z,99619.03
2022-10-20T02:21:10.967Z,99552.53
2022-10-20T02:26:37.973Z,99550.63
2022-10-20T02:32:00.429Z,99598.59
2022-10-20T02:37:22.747Z,99682.22
2022-10-20T02:42:47.479Z,99662.41
2022-10-20T02:48:12.591Z,99684.97
2022-10-20T02:53:36.847Z,99686.63
2022-10-20T02:58:59.331Z,99694.63
2022-10-20T03:09:50.808Z,99712.78
2022-10-20T03:15:13.285Z,99712.47
2022-10-20T03:20:35.586Z,99721.22
2022-10-20T03:26:05.525Z,99723.84
2022-10-20T03:31:27.219Z,99726.75
2022-10-20T03:36:49.235Z,99735.00
2022-10-20T03:42:11.106Z,99728.88
2022-10-20T03:47:33.605Z,99726.50
2022-10-20T03:52:55.806Z,99738.56
2022-10-20T03:58:17.835Z,99745.25
2022-10-20T04:03:39.878Z,99747.16
2022-10-20T04:09:02.012Z,99751.69
2022-10-20T04:14:23.907Z,99659.97
2022-10-20T04:19:46.730Z,99739.25
2022-10-20T04:25:09.025Z,99773.66
2022-10-20T04:30:30.794Z,99767.78
2022-10-20T04:36:13.665Z,99775.53
2022-10-20T04:41:36.226Z,99782.78
2022-10-20T04:46:58.346Z,99781.69
2022-10-20T04:52:21.413Z,99784.88
2022-10-20T04:57:43.513Z,99774.75
2022-10-20T05:03:05.677Z,99786.78
2022-10-20T05:08:27.797Z,99785.50
2022-10-20T05:13:49.987Z,99797.56
2022-10-20T05:19:12.288Z,99812.34
2022-10-20T05:24:33.866Z,99815.31
2022-10-20T05:29:55.739Z,99827.34
2022-10-20T05:35:17.806Z,99821.94
2022-10-20T05:40:39.860Z,99827.56
2022-10-20T05:46:02.028Z,99839.66
2022-10-20T05:51:28.246Z,99844.81
2022-10-20T05:56:50.446Z,99837.59
2022-10-20T06:02:13.167Z,99848.13
2022-10-20T06:07:35.374Z,99852.25
2022-10-20T06:12:57.495Z,99846.47
2022-10-20T06:18:19.587Z,99833.13
2022-10-20T06:23:41.628Z,99844.88
2022-10-20T06:29:06.161Z,99854.09
2022-10-20T06:34:28.254Z,99848.22
2022-10-20T06:39:50.207Z,99855.81
2022-10-20T06:45:14.434Z,99861.25
2022-10-20T06:50:39.325Z,99860.16
2022-10-20T06:56:02.547Z,99866.91
2022-10-20T07:01:33.157Z,99867.75
2022-10-20T07:06:54.926Z,99871.47
2022-10-20T07:12:17.007Z,99821.81
2022-10-20T07:17:39.076Z,99852.66
2022-10-20T07:23:01.145Z,99858.06
2022-10-20T07:28:23.209Z,99861.00
2022-10-20T07:33:56.517Z,99866.06
2022-10-20T07:39:27.504Z,99866.59
2022-10-20T07:44:49.468Z,99869.06
2022-10-20T07:50:13.427Z,99876.66
2022-10-20T07:55:39.394Z,99884.13
2022-10-20T08:01:01.926Z,99883.56
2022-10-20T08:06:24.326Z,99888.69
2022-10-20T08:11:47.037Z,99874.78
2022-10-20T08:17:11.187Z,99892.13
2022-10-20T08:22:33.270Z,99894.00
2022-10-20T08:27:55.320Z,99904.19
2022-10-20T08:33:17.279Z,99902.03
2022-10-20T08:38:40.488Z,99903.38
2022-10-20T08:44:05.507Z,99904.19
2022-10-20T08:49:31.919Z,99909.19
2022-10-20T08:54:56.365Z,99904.13
2022-10-20T09:00:21.525Z,99885.84
2022-10-20T09:05:50.275Z,99900.88
2022-10-20T09:11:32.687Z,99906.22
2022-10-20T09:17:09.123Z,99824.72
2022-10-20T09:22:44.655Z,99847.69
2022-10-20T09:28:21.988Z,99894.91
2022-10-20T09:33:44.444Z,99887.09
2022-10-20T09:39:06.966Z,99814.47
2022-10-20T09:44:33.417Z,99837.97
2022-10-20T09:50:02.695Z,99835.56
2022-10-20T09:55:33.914Z,99914.19
2022-10-20T10:01:08.139Z,99818.69
2022-10-20T10:06:38.266Z,99829.22
2022-10-20T10:12:15.506Z,99916.06
2022-10-20T10:17:37.395Z,99923.50
2022-10-20T10:23:31.026Z,99933.78
2022-10-20T10:28:59.294Z,99932.66
2022-10-20T10:34:21.446Z,99926.22
2022-10-20T10:39:44.154Z,99925.47
2022-10-20T10:45:38.647Z,99927.63
2022-10-20T10:51:11.372Z,99939.13
2022-10-20T10:56:50.386Z,99938.81
2022-10-20T11:02:37.437Z,99944.31
2022-10-20T11:08:14.695Z,99915.13
2022-10-20T11:14:01.235Z,99945.63
2022-10-20T11:19:47.252Z,99953.88
2022-10-20T11:25:16.894Z,99954.19
2022-10-20T11:30:39.654Z,99940.84
2022-10-20T11:36:11.617Z,99938.63
2022-10-20T11:41:47.848Z,99957.41
2022-10-20T11:47:26.505Z,99950.72
2022-10-20T11:53:12.767Z,99959.03
2022-10-20T11:59:05.033Z,99962.47
2022-10-20T12:04:29.873Z,99963.75
2022-10-20T12:10:18.460Z,99956.16
2022-10-20T12:15:52.275Z,99964.91
2022-10-20T12:21:34.561Z,99973.16
2022-10-20T12:27:07.881Z,99969.91
2022-10-20T12:32:29.399Z,99980.31
2022-10-20T12:38:04.655Z,99962.44
2022-10-20T12:43:30.857Z,99963.72
2022-10-20T12:48:59.156Z,99986.94
2022-10-20T12:54:30.627Z,99979.00
2022-10-20T12:59:54.029Z,99985.16
2022-10-20T13:05:15.596Z,99997.38
2022-10-20T13:10:38.423Z,100001.03
2022-10-20T13:16:02.154Z,99982.84
2022-10-20T13:21:33.396Z,100006.06
2022-10-20T13:27:00.245Z,99994.81
2022-10-20T13:32:43.532Z,100000.41
2022-10-20T13:38:24.506Z,100007.91
2022-10-20T13:44:25.885Z,100021.16
2022-10-20T13:50:10.399Z,100028.06
2022-10-20T13:55:58.134Z,100022.66
2022-10-20T14:01:26.910Z,100023.56
2022-10-20T14:06:48.970Z,100029.22
2022-10-20T14:12:26.868Z,100028.41
2022-10-20T14:18:40.242Z,100028.56
2022-10-20T14:24:04.274Z,100029.88
2022-10-20T14:29:30.231Z,100025.03
2022-10-20T14:34:58.859Z,100046.13
2022-10-20T14:40:30.734Z,100057.25
2022-10-20T14:45:55.552Z,100052.31
2022-10-20T14:51:45.546Z,100053.69
2022-10-20T14:57:10.781Z,100058.56
2022-10-20T15:02:38.927Z,100061.63
2022-10-20T15:08:26.944Z,100047.00
2022-10-20T15:13:54.588Z,99995.66
2022-10-20T15:19:32.406Z,100064.53
2022-10-20T15:24:56.948Z,99989.22
2022-10-20T15:30:21.385Z,100040.47
2022-10-20T15:35:48.036Z,99979.34
2022-10-20T15:41:27.854Z,100058.13
2022-10-20T15:46:56.927Z,100009.72
2022-10-20T15:52:19.196Z,99987.94
2022-10-20T15:57:41.515Z,100068.47
2022-10-20T16:03:04.613Z,100014.88
2022-10-20T16:08:26.751Z,100042.63
2022-10-20T16:13:49.028Z,100088.34
2022-10-20T16:19:11.821Z,100077.53
2022-10-20T16:24:33.604Z,100085.84
2022-10-20T16:29:55.326Z,100083.50
2022-10-20T16:35:17.125Z,100088.25
2022-10-20T16:40:39.053Z,100061.75
2022-10-20T16:46:06.093Z,100079.13
2022-10-20T16:51:28.067Z,100084.22
2022-10-20T16:56:50.104Z,100062.34
2022-10-20T17:02:14.908Z,100076.56
2022-10-20T17:07:37.230Z,100078.44
2022-10-20T17:12:59.145Z,100061.69
2022-10-20T17:18:22.169Z,100072.09
2022-10-20T17:23:45.350Z,100089.88
2022-10-20T17:29:10.013Z,100044.50
2022-10-20T17:34:32.186Z,100065.59
2022-10-20T17:39:54.154Z,100047.81
2022-10-20T17:45:16.227Z,100008.09
2022-10-20T17:50:38.519Z,100075.75
2022-10-20T17:56:11.121Z,100085.44
2022-10-20T18:01:36.656Z,100099.31
2022-10-20T18:06:59.049Z,100084.63
2022-10-20T18:12:20.865Z,100101.25
2022-10-20T18:17:42.647Z,100096.50
2022-10-20T18:23:04.725Z,100084.94
2022-10-20T18:28:26.822Z,100092.56
2022-10-20T18:33:50.648Z,100094.97
2022-10-20T18:39:12.667Z,100104.00
2022-10-20T18:44:34.527Z,100107.41
2022-10-20T18:49:56.554Z,100102.72
2022-10-20T18:55:19.271Z,100116.69
2022-10-20T19:00:41.476Z,100116.22
2022-10-20T19:06:16.782Z,100122.25
2022-10-20T19:11:51.527Z,100116.59
2022-10-20T19:17:13.846Z,100100.69
2022-10-20T19:22:36.396Z,100073.13
2022-10-20T19:27:59.847Z,100126.13
2022-10-20T19:33:22.202Z,100102.13
2022-10-20T19:38:44.878Z,100093.97
2022-10-20T19:44:08.407Z,100050.31
2022-10-20T19:49:30.471Z,100042.00
2022-10-20T19:54:53.482Z,100110.66
2022-10-20T20:00:16.207Z,100083.13
2022-10-20T20:05:38.680Z,100035.06
2022-10-20T20:11:05.888Z,100128.94
2022-10-20T20:16:29.507Z,100120.94
2022-10-20T20:21:51.398Z,100128.69
2022-10-20T20:27:13.088Z,100127.41
2022-10-20T20:32:37.041Z,100137.84
2022-10-20T20:37:59.719Z,100127.41
2022-10-20T20:43:21.988Z,100123.13
2022-10-20T20:48:44.490Z,100121.44
2022-10-20T20:54:06.708Z,100117.16
2022-10-20T20:59:29.034Z,100130.16
2022-10-20T21:04:50.970Z,100116.97
2022-10-20T21:10:13.050Z,100121.28
2022-10-20T21:15:35.534Z,100131.72
2022-10-20T21:20:57.831Z,100104.56
2022-10-20T21:26:21.482Z,100120.13
2022-10-20T21:31:43.607Z,100119.16
2022-10-20T21:37:05.548Z,100072.97
2022-10-20T21:42:28.079Z,100089.81
2022-10-20T21:47:50.096Z,100094.75
2022-10-20T21:53:12.408Z,100095.56
2022-10-20T21:58:35.430Z,100111.81
2022-10-20T22:03:57.826Z,100104.13
2022-10-20T22:09:21.543Z,100125.94
2022-10-20T22:14:46.427Z,100079.88
2022-10-20T22:20:10.068Z,100082.44
2022-10-20T22:25:38.371Z,100091.50
2022-10-20T22:36:23.854Z,100143.13
2022-10-20T22:41:45.970Z,100077.34
2022-10-20T22:47:08.375Z,100064.16
2022-10-20T22:52:30.790Z,100110.88
2022-10-20T22:57:53.498Z,100099.91
2022-10-20T23:03:15.631Z,100063.56
2022-10-20T23:08:43.663Z,100111.38
2022-10-20T23:15:22.511Z,100129.81
2022-10-20T23:20:05.615Z,100064.22
2022-10-20T23:25:28.019Z,100101.16
2022-10-20T23:30:50.198Z,100119.06
2022-10-20T23:36:14.028Z,100098.63
2022-10-20T23:41:36.007Z,100097.47
2022-10-20T23:46:57.947Z,100122.19
2022-10-20T23:52:20.055Z,100113.63
2022-10-20T23:57:41.821Z,100052.09
